Time;durP1;ratioP1;P1;durP2;ratioP2;P2;SDS_P1;SDS_P2;PMS_P1;PMS_P2;Temp;Humidity;BMP_temperature;BMP_pressure;BME280_temperature;BME280_humidity;BME280_pressure;Samples;Min_cycle;Max_cycle;Signal;HPM_P1;HPM_P2
2023/05/11 00:00:43;;;;;;;;;;;;;;;;;;5090868;28;19923;-61
2023/05/11 00:03:09;;;;;;;;;;;;;;;;;;5091095;28;19924;-61
2023/05/11 00:05:35;;;;;;;;;;;;;;;;;;5090495;28;19942;-61
2023/05/11 00:08:00;;;;;;;;;;;;;;;;;;5090895;28;19928;-61
2023/05/11 00:10:26;;;;;;;;;;;;;;;;;;5090929;28;19935;-61
2023/05/11 00:12:52;;;;;;;;;;;;;;;;;;5090299;28;19933;-61
2023/05/11 00:15:18;;;;;;;;;;;;;;;;;;5090893;28;19996;-62
2023/05/11 00:17:45;;;;;;;;;;;;;;;;;;5073001;28;19920;-61
2023/05/11 00:20:11;;;;;;;;;;;;;;;;;;5093092;28;19973;-61
2023/05/11 00:22:38;;;;;;;;;;;;;;;;;;5095193;28;20390;-61
2023/05/11 00:25:04;;;;;;;;;;;;;;;;;;5093715;28;20361;-61
2023/05/11 00:27:30;;;;;;;;;;;;;;;;;;5079717;28;19931;-61
2023/05/11 00:29:57;;;;;;;;;;;;;;;;;;5095014;28;20364;-61
2023/05/11 00:32:22;;;;;;;;;;;;;;;;;;5094667;28;20386;-61
2023/05/11 00:34:48;;;;;;;;;;;;;;;;;;5094417;28;19931;-61
2023/05/11 00:37:14;;;;;;;;;;;;;;;;;;5094785;28;19924;-61
2023/05/11 00:39:40;;;;;;;;;;;;;;;;;;5094728;28;19931;-61
2023/05/11 00:42:06;;;;;;;;;;;;;;;;;;5094113;28;20362;-61
2023/05/11 00:44:32;;;;;;;;;;;;;;;;;;5094685;28;19920;-61
2023/05/11 00:46:58;;;;;;;;;;;;;;;;;;5094734;28;19920;-61
2023/05/11 00:49:24;;;;;;;;;;;;;;;;;;5093976;28;19930;-61
2023/05/11 00:51:50;;;;;;;;;;;;;;;;;;5094585;28;20032;-61
2023/05/11 00:54:16;;;;;;;;;;;;;;;;;;5094676;28;20317;-62
2023/05/11 00:56:42;;;;;;;;;;;;;;;;;;5094485;28;19920;-61
2023/05/11 00:59:08;;;;;;;;;;;;;;;;;;5094286;28;20002;-61
2023/05/11 01:01:34;;;;;;;;;;;;;;;;;;5094079;28;19920;-61
2023/05/11 01:04:00;;;;;;;;;;;;;;;;;;5094273;28;20401;-61
2023/05/11 01:06:26;;;;;;;;;;;;;;;;;;5093881;28;19928;-61
2023/05/11 01:08:52;;;;;;;;;;;;;;;;;;5075785;28;19928;-61
2023/05/11 01:11:18;;;;;;;;;;;;;;;;;;5094225;28;19924;-61
2023/05/11 01:13:44;;;;;;;;;;;;;;;;;;5075551;28;20018;-61
2023/05/11 01:16:11;;;;;;;;;;;;;;;;;;5094223;28;19920;-61
2023/05/11 01:18:37;;;;;;;;;;;;;;;;;;5094099;28;19986;-61
2023/05/11 01:21:02;;;;;;;;;;;;;;;;;;5093586;28;19919;-61
2023/05/11 01:23:28;;;;;;;;;;;;;;;;;;5093614;28;19928;-61
2023/05/11 01:25:54;;;;;;;;;;;;;;;;;;5085939;28;19938;-61
2023/05/11 01:28:20;;;;;;;;;;;;;;;;;;5085634;28;19924;-61
2023/05/11 01:30:46;;;;;;;;;;;;;;;;;;5093403;28;19924;-61
2023/05/11 01:33:12;;;;;;;;;;;;;;;;;;5093636;28;19947;-61
2023/05/11 01:35:38;;;;;;;;;;;;;;;;;;5093139;28;19927;-61
2023/05/11 01:38:04;;;;;;;;;;;;;;;;;;5093673;28;19928;-61
2023/05/11 01:40:30;;;;;;;;;;;;;;;;;;5093744;28;19924;-62
2023/05/11 01:42:56;;;;;;;;;;;;;;;;;;5093131;28;20085;-61
2023/05/11 01:45:22;;;;;;;;;;;;;;;;;;5093644;28;19920;-61
2023/05/11 01:47:48;;;;;;;;;;;;;;;;;;5075285;28;19920;-61
2023/05/11 01:50:14;;;;;;;;;;;;;;;;;;5092796;28;20425;-61
2023/05/11 01:52:40;;;;;;;;;;;;;;;;;;5093302;28;19924;-61
2023/05/11 01:55:06;;;;;;;;;;;;;;;;;;5093506;28;20022;-61
2023/05/11 01:57:32;;;;;;;;;;;;;;;;;;5074900;28;19919;-61
2023/05/11 01:59:58;;;;;;;;;;;;;;;;;;5093415;28;19920;-61
2023/05/11 02:02:24;;;;;;;;;;;;;;;;;;5093195;28;19943;-61
2023/05/11 02:04:50;;;;;;;;;;;;;;;;;;5074439;28;19923;-61
2023/05/11 02:07:16;;;;;;;;;;;;;;;;;;5093349;28;19928;-61
2023/05/11 02:09:42;;;;;;;;;;;;;;;;;;5074758;28;19936;-61
2023/05/11 02:12:08;;;;;;;;;;;;;;;;;;5092556;28;19998;-61
2023/05/11 02:14:35;;;;;;;;;;;;;;;;;;5093014;28;19924;-61
2023/05/11 02:17:01;;;;;;;;;;;;;;;;;;5093035;28;20335;-61
2023/05/11 02:19:27;;;;;;;;;;;;;;;;;;5092540;28;19969;-61
2023/05/11 02:21:53;;;;;;;;;;;;;;;;;;5092698;28;19924;-61
2023/05/11 02:24:19;;;;;;;;;;;;;;;;;;5092603;28;19928;-61
2023/05/11 02:26:45;;;;;;;;;;;;;;;;;;5077122;28;19942;-61
2023/05/11 02:29:11;;;;;;;;;;;;;;;;;;5091829;28;19959;-61
2023/05/11 02:31:37;;;;;;;;;;;;;;;;;;5092838;28;19978;-61
2023/05/11 02:34:03;;;;;;;;;;;;;;;;;;5092011;28;19927;-61
2023/05/11 02:36:29;;;;;;;;;;;;;;;;;;5092766;28;19921;-61
2023/05/11 02:38:55;;;;;;;;;;;;;;;;;;5092435;28;19927;-61
2023/05/11 02:41:21;;;;;;;;;;;;;;;;;;5073211;28;20306;-61
2023/05/11 02:43:47;;;;;;;;;;;;;;;;;;5074001;28;20409;-61
2023/05/11 02:46:13;;;;;;;;;;;;;;;;;;5092382;28;20014;-61
2023/05/11 02:48:40;;;;;;;;;;;;;;;;;;5091652;28;19928;-61
2023/05/11 02:51:06;;;;;;;;;;;;;;;;;;5092244;28;19947;-61
2023/05/11 02:53:32;;;;;;;;;;;;;;;;;;5092391;28;20367;-62
2023/05/11 02:55:57;;;;;;;;;;;;;;;;;;5091829;28;19920;-62
2023/05/11 02:58:23;;;;;;;;;;;;;;;;;;5092302;28;19924;-62
2023/05/11 03:00:50;;;;;;;;;;;;;;;;;;5092095;28;19920;-62
2023/05/11 03:03:16;;;;;;;;;;;;;;;;;;5091368;28;20394;-62
2023/05/11 03:05:42;;;;;;;;;;;;;;;;;;5091968;28;19934;-62
2023/05/11 03:08:08;;;;;;;;;;;;;;;;;;5091987;28;20019;-62
2023/05/11 03:10:34;;;;;;;;;;;;;;;;;;5091486;28;19946;-62
2023/05/11 03:13:00;;;;;;;;;;;;;;;;;;5073513;28;19924;-62
2023/05/11 03:15:26;;;;;;;;;;;;;;;;;;5091928;28;19928;-62
2023/05/11 03:17:52;;;;;;;;;;;;;;;;;;5091253;28;20398;-62
2023/05/11 03:20:18;;;;;;;;;;;;;;;;;;5091834;28;19924;-62
2023/05/11 03:22:43;;;;;;;;;;;;;;;;;;5091558;28;19970;-62
2023/05/11 03:25:10;;;;;;;;;;;;;;;;;;5088928;28;20065;-62
2023/05/11 03:27:36;;;;;;;;;;;;;;;;;;5077275;28;19927;-62
2023/05/11 03:30:02;;;;;;;;;;;;;;;;;;5073579;28;19931;-62
2023/05/11 03:32:29;;;;;;;;;;;;;;;;;;5090057;28;22314;-62
2023/05/11 03:34:55;;;;;;;;;;;;;;;;;;5073247;28;19923;-62
2023/05/11 03:37:21;;;;;;;;;;;;;;;;;;5091434;28;20275;-62
2023/05/11 03:39:47;;;;;;;;;;;;;;;;;;5090990;28;19970;-62
2023/05/11 03:42:13;;;;;;;;;;;;;;;;;;5091351;28;19920;-62
2023/05/11 03:44:39;;;;;;;;;;;;;;;;;;5091104;28;19920;-62
2023/05/11 03:47:05;;;;;;;;;;;;;;;;;;5091112;28;19920;-62
2023/05/11 03:49:31;;;;;;;;;;;;;;;;;;5091164;28;19973;-62
2023/05/11 03:51:57;;;;;;;;;;;;;;;;;;5091366;28;20000;-62
2023/05/11 03:54:23;;;;;;;;;;;;;;;;;;5090783;28;19951;-62
2023/05/11 03:56:49;;;;;;;;;;;;;;;;;;5091329;28;19931;-62
2023/05/11 03:59:15;;;;;;;;;;;;;;;;;;5090983;28;19920;-62
2023/05/11 04:01:41;;;;;;;;;;;;;;;;;;5090932;28;20016;-62
2023/05/11 04:04:07;;;;;;;;;;;;;;;;;;5090896;28;19943;-62
2023/05/11 04:06:33;;;;;;;;;;;;;;;;;;5091277;28;19928;-62
2023/05/11 04:08:59;;;;;;;;;;;;;;;;;;5091167;28;19932;-62
2023/05/11 04:11:26;;;;;;;;;;;;;;;;;;5090521;28;19931;-62
2023/05/11 04:13:52;;;;;;;;;;;;;;;;;;5090999;28;19926;-62
2023/05/11 04:16:18;;;;;;;;;;;;;;;;;;5091009;28;20007;-62
2023/05/11 04:18:44;;;;;;;;;;;;;;;;;;5090495;28;19920;-62
2023/05/11 04:21:10;;;;;;;;;;;;;;;;;;5090708;28;19947;-62
2023/05/11 04:23:37;;;;;;;;;;;;;;;;;;5073072;28;19924;-62
2023/05/11 04:26:03;;;;;;;;;;;;;;;;;;5081759;28;19920;-62
2023/05/11 04:28:28;;;;;;;;;;;;;;;;;;5084472;28;19958;-62
2023/05/11 04:30:55;;;;;;;;;;;;;;;;;;5091030;28;19967;-62
2023/05/11 04:33:21;;;;;;;;;;;;;;;;;;5090466;28;19924;-62
2023/05/11 04:35:47;;;;;;;;;;;;;;;;;;5091177;28;20401;-62
2023/05/11 04:38:13;;;;;;;;;;;;;;;;;;5091236;28;19920;-62
2023/05/11 04:40:39;;;;;;;;;;;;;;;;;;5090679;28;19927;-62
2023/05/11 04:43:05;;;;;;;;;;;;;;;;;;5091125;28;19935;-62
2023/05/11 04:45:31;;;;;;;;;;;;;;;;;;5091129;28;19924;-62
2023/05/11 04:47:57;;;;;;;;;;;;;;;;;;5090442;28;19946;-62
2023/05/11 04:50:23;;;;;;;;;;;;;;;;;;5090829;28;19924;-62
2023/05/11 04:52:49;;;;;;;;;;;;;;;;;;5091068;28;20035;-62
2023/05/11 04:55:15;;;;;;;;;;;;;;;;;;5090525;28;19999;-62
2023/05/11 04:57:41;;;;;;;;;;;;;;;;;;5091065;28;20362;-62
2023/05/11 05:00:08;;;;;;;;;;;;;;;;;;5091009;28;19920;-62
2023/05/11 05:02:34;;;;;;;;;;;;;;;;;;5090295;28;20407;-62
2023/05/11 05:05:00;;;;;;;;;;;;;;;;;;5091212;28;20279;-62
2023/05/11 05:07:26;;;;;;;;;;;;;;;;;;5094788;28;19928;-62
2023/05/11 05:09:52;;;;;;;;;;;;;;;;;;5089880;28;19932;-63
2023/05/11 05:12:18;;;;;;;;;;;;;;;;;;5093864;28;19920;-63
2023/05/11 05:14:44;;;;;;;;;;;;;;;;;;5093859;28;19927;-63
2023/05/11 05:17:10;;;;;;;;;;;;;;;;;;5093826;28;20681;-63
2023/05/11 05:19:36;;;;;;;;;;;;;;;;;;5094046;28;20001;-63
2023/05/11 05:22:02;;;;;;;;;;;;;;;;;;5093996;28;19924;-63
2023/05/11 05:24:28;;;;;;;;;;;;;;;;;;5093270;28;19931;-62
2023/05/11 05:26:54;;;;;;;;;;;;;;;;;;5093641;28;20282;-63
2023/05/11 05:29:20;;;;;;;;;;;;;;;;;;5093885;28;19968;-62
2023/05/11 05:31:46;;;;;;;;;;;;;;;;;;5093261;28;19969;-63
2023/05/11 05:34:12;;;;;;;;;;;;;;;;;;5093895;28;19924;-63
2023/05/11 05:36:38;;;;;;;;;;;;;;;;;;5075251;28;19924;-63
2023/05/11 05:39:08;;;;;;;;;;;;;;;;;;5093390;28;19970;-62
2023/05/11 05:41:35;;;;;;;;;;;;;;;;;;5093827;28;19920;-63
2023/05/11 05:44:01;;;;;;;;;;;;;;;;;;5093602;28;19920;-63
2023/05/11 05:46:27;;;;;;;;;;;;;;;;;;5093010;28;19924;-63
2023/05/11 05:48:53;;;;;;;;;;;;;;;;;;5093346;28;19928;-63
2023/05/11 05:51:19;;;;;;;;;;;;;;;;;;5093387;28;19972;-62
2023/05/11 05:53:45;;;;;;;;;;;;;;;;;;5093266;28;20335;-62
2023/05/11 05:56:11;;;;;;;;;;;;;;;;;;5093469;28;19970;-62
2023/05/11 05:58:37;;;;;;;;;;;;;;;;;;5093278;28;19924;-62
2023/05/11 06:01:03;;;;;;;;;;;;;;;;;;5093144;28;19963;-63
2023/05/11 06:03:29;;;;;;;;;;;;;;;;;;5075241;28;19924;-62
2023/05/11 06:05:55;;;;;;;;;;;;;;;;;;5093469;28;19943;-63
2023/05/11 06:08:21;;;;;;;;;;;;;;;;;;5092675;28;20028;-63
2023/05/11 06:10:47;;;;;;;;;;;;;;;;;;5092746;28;19975;-62
2023/05/11 06:13:13;;;;;;;;;;;;;;;;;;5093049;28;19969;-62
2023/05/11 06:15:39;;;;;;;;;;;;;;;;;;5074142;28;19985;-63
2023/05/11 06:18:05;;;;;;;;;;;;;;;;;;5091795;28;19924;-62
2023/05/11 06:20:31;;;;;;;;;;;;;;;;;;5093147;28;19931;-62
2023/05/11 06:22:57;;;;;;;;;;;;;;;;;;5092176;28;20015;-62
2023/05/11 06:25:23;;;;;;;;;;;;;;;;;;5074034;28;19920;-62
2023/05/11 06:27:49;;;;;;;;;;;;;;;;;;5092762;28;20003;-62
2023/05/11 06:30:15;;;;;;;;;;;;;;;;;;5092143;28;20010;-62
2023/05/11 06:32:41;;;;;;;;;;;;;;;;;;5092857;28;19920;-63
2023/05/11 06:35:07;;;;;;;;;;;;;;;;;;5092428;28;19980;-63
2023/05/11 06:37:34;;;;;;;;;;;;;;;;;;5066543;28;19924;-59
2023/05/11 06:40:00;;;;;;;;;;;;;;;;;;5070551;28;19924;-60
2023/05/11 06:42:26;;;;;;;;;;;;;;;;;;5092093;28;19920;-59
2023/05/11 06:44:55;;;;;;;;;;;;;;;;;;5091760;28;19967;-58
2023/05/11 06:47:21;;;;;;;;;;;;;;;;;;5091944;28;19963;-59
2023/05/11 06:49:47;;;;;;;;;;;;;;;;;;5092273;28;19975;-59
2023/05/11 06:52:13;;;;;;;;;;;;;;;;;;5090949;28;19924;-61
2023/05/11 06:54:39;;;;;;;;;;;;;;;;;;5091131;28;20498;-59
2023/05/11 06:57:05;;;;;;;;;;;;;;;;;;5092030;28;19927;-61
2023/05/11 06:59:31;;;;;;;;;;;;;;;;;;5091093;28;19931;-60
2023/05/11 07:01:57;;;;;;;;;;;;;;;;;;5068084;28;19924;-61
2023/05/11 07:04:23;;;;;;;;;;;;;;;;;;5091728;28;20393;-61
2023/05/11 07:06:49;;;;;;;;;;;;;;;;;;5091120;28;19924;-60
2023/05/11 07:09:15;;;;;;;;;;;;;;;;;;5091537;28;19968;-61
2023/05/11 07:11:41;;;;;;;;;;;;;;;;;;5091378;28;19920;-61
2023/05/11 07:14:07;;;;;;;;;;;;;;;;;;5083594;28;19920;-61
2023/05/11 07:16:36;;;;;;;;;;;;;;;;;;5071861;28;20022;-61
2023/05/11 07:19:02;;;;;;;;;;;;;;;;;;5087918;28;19919;-60
2023/05/11 07:21:28;;;;;;;;;;;;;;;;;;5089743;28;19927;-60
2023/05/11 07:23:54;;;;;;;;;;;;;;;;;;5086018;28;19931;-61
2023/05/11 07:26:20;;;;;;;;;;;;;;;;;;5091002;28;19924;-61
2023/05/11 07:28:46;;;;;;;;;;;;;;;;;;5080410;28;20283;-59
2023/05/11 07:31:12;;;;;;;;;;;;;;;;;;5079048;28;19924;-60
2023/05/11 07:33:38;;;;;;;;;;;;;;;;;;5084100;28;19924;-60
2023/05/11 07:36:04;;;;;;;;;;;;;;;;;;5079816;28;19921;-60
2023/05/11 07:38:30;;;;;;;;;;;;;;;;;;5079189;28;19928;-60
2023/05/11 07:40:56;;;;;;;;;;;;;;;;;;5075633;28;19947;-61
2023/05/11 07:43:22;;;;;;;;;;;;;;;;;;5090040;28;19920;-60
2023/05/11 07:45:48;;;;;;;;;;;;;;;;;;5090794;28;20004;-61
2023/05/11 07:48:14;;;;;;;;;;;;;;;;;;5090769;28;19928;-61
2023/05/11 07:50:41;;;;;;;;;;;;;;;;;;5083890;28;19924;-62
2023/05/11 07:53:07;;;;;;;;;;;;;;;;;;5090370;28;19928;-60
2023/05/11 07:55:33;;;;;;;;;;;;;;;;;;5090867;28;19927;-63
2023/05/11 07:57:59;;;;;;;;;;;;;;;;;;5090949;28;19961;-62
2023/05/11 08:00:25;;;;;;;;;;;;;;;;;;5090189;28;20012;-60
2023/05/11 08:02:51;;;;;;;;;;;;;;;;;;5090441;28;19935;-60
2023/05/11 08:05:18;;;;;;;;;;;;;;;;;;5090721;28;19924;-60
2023/05/11 08:07:44;;;;;;;;;;;;;;;;;;5084379;28;19924;-61
2023/05/11 08:10:10;;;;;;;;;;;;;;;;;;5084757;28;19928;-61
2023/05/11 08:12:36;;;;;;;;;;;;;;;;;;5090264;28;19924;-60
2023/05/11 08:15:03;;;;;;;;;;;;;;;;;;5069123;28;19924;-62
2023/05/11 08:17:29;;;;;;;;;;;;;;;;;;5063646;28;19924;-55
2023/05/11 08:19:55;;;;;;;;;;;;;;;;;;5085911;28;19994;-56
2023/05/11 08:22:21;;;;;;;;;;;;;;;;;;5081185;28;19927;-58
2023/05/11 08:24:47;;;;;;;;;;;;;;;;;;5088911;28;19932;-57
2023/05/11 08:27:14;;;;;;;;;;;;;;;;;;5087599;28;19928;-59
2023/05/11 08:29:40;;;;;;;;;;;;;;;;;;5081813;28;19928;-58
2023/05/11 08:32:06;;;;;;;;;;;;;;;;;;5074566;28;20322;-58
2023/05/11 08:34:32;;;;;;;;;;;;;;;;;;5083321;28;19921;-59
2023/05/11 08:37:00;;;;;;;;;;;;;;;;;;5084163;28;19931;-61
2023/05/11 08:39:26;;;;;;;;;;;;;;;;;;5077695;28;19924;-59
2023/05/11 08:41:52;;;;;;;;;;;;;;;;;;5081717;28;19924;-61
2023/05/11 08:44:18;;;;;;;;;;;;;;;;;;5092141;28;19927;-61
2023/05/11 08:46:44;;;;;;;;;;;;;;;;;;5092875;28;19946;-59
2023/05/11 08:49:10;;;;;;;;;;;;;;;;;;5085399;28;19939;-59
2023/05/11 08:51:36;;;;;;;;;;;;;;;;;;5083480;28;19924;-56
2023/05/11 08:54:02;;;;;;;;;;;;;;;;;;5080021;28;19927;-61
2023/05/11 08:56:28;;;;;;;;;;;;;;;;;;5087028;28;19927;-61
2023/05/11 08:58:55;;;;;;;;;;;;;;;;;;5063647;28;19920;-61
2023/05/11 09:01:22;;;;;;;;;;;;;;;;;;5089368;28;19928;-61
2023/05/11 09:03:47;;;;;;;;;;;;;;;;;;5085255;28;19924;-60
2023/05/11 09:06:13;;;;;;;;;;;;;;;;;;5085803;28;20014;-60
2023/05/11 09:08:40;;;;;;;;;;;;;;;;;;5078035;28;19958;-61
2023/05/11 09:11:06;;;;;;;;;;;;;;;;;;5080581;28;19966;-61
2023/05/11 09:13:32;;;;;;;;;;;;;;;;;;5079664;28;19925;-60
2023/05/11 09:15:57;;;;;;;;;;;;;;;;;;5074672;28;19970;-60
2023/05/11 09:18:23;;;;;;;;;;;;;;;;;;5082087;28;19924;-60
2023/05/11 09:20:51;;;;;;;;;;;;;;;;;;5063540;28;19924;-60
2023/05/11 09:23:17;;;;;;;;;;;;;;;;;;5072455;28;20430;-61
2023/05/11 09:25:43;;;;;;;;;;;;;;;;;;5064276;28;19925;-60
2023/05/11 09:28:08;;;;;;;;;;;;;;;;;;5081078;28;19928;-62
2023/05/11 09:30:34;;;;;;;;;;;;;;;;;;5079041;28;19924;-62
2023/05/11 09:33:01;;;;;;;;;;;;;;;;;;5076974;28;20015;-62
2023/05/11 09:35:30;;;;;;;;;;;;;;;;;;5089524;28;20318;-62
2023/05/11 09:37:56;;;;;;;;;;;;;;;;;;5063448;28;19924;-61
2023/05/11 09:40:22;;;;;;;;;;;;;;;;;;5081270;28;19927;-60
2023/05/11 09:42:48;;;;;;;;;;;;;;;;;;5077746;28;19995;-61
2023/05/11 09:45:14;;;;;;;;;;;;;;;;;;5062642;28;19924;-59
2023/05/11 09:47:40;;;;;;;;;;;;;;;;;;5063808;28;19924;-57
2023/05/11 09:50:06;;;;;;;;;;;;;;;;;;5079764;28;19939;-60
2023/05/11 09:52:32;;;;;;;;;;;;;;;;;;5083574;28;19974;-61
2023/05/11 09:54:58;;;;;;;;;;;;;;;;;;5086710;28;20351;-59
2023/05/11 09:57:24;;;;;;;;;;;;;;;;;;5083368;28;19927;-60
2023/05/11 09:59:50;;;;;;;;;;;;;;;;;;5076870;28;19928;-60
2023/05/11 10:02:16;;;;;;;;;;;;;;;;;;5078103;28;19932;-61
2023/05/11 10:04:42;;;;;;;;;;;;;;;;;;5076918;28;19928;-60
2023/05/11 10:07:08;;;;;;;;;;;;;;;;;;5070933;28;20663;-59
2023/05/11 10:09:34;;;;;;;;;;;;;;;;;;5076108;28;19936;-58
2023/05/11 10:12:00;;;;;;;;;;;;;;;;;;5071812;28;19928;-60
2023/05/11 10:14:26;;;;;;;;;;;;;;;;;;5084387;28;19946;-61
2023/05/11 10:16:52;;;;;;;;;;;;;;;;;;5073197;28;19929;-60
2023/05/11 10:19:18;;;;;;;;;;;;;;;;;;5067143;28;19924;-60
2023/05/11 10:21:44;;;;;;;;;;;;;;;;;;5072547;28;19928;-59
2023/05/11 10:24:10;;;;;;;;;;;;;;;;;;5074644;28;19967;-59
2023/05/11 10:26:36;;;;;;;;;;;;;;;;;;5072975;28;19939;-59
2023/05/11 10:29:02;;;;;;;;;;;;;;;;;;5075735;28;19931;-60
2023/05/11 10:31:28;;;;;;;;;;;;;;;;;;5076512;28;20396;-61
2023/05/11 10:33:54;;;;;;;;;;;;;;;;;;5082708;28;19955;-60
2023/05/11 10:36:20;;;;;;;;;;;;;;;;;;5084119;28;19924;-60
2023/05/11 10:38:46;;;;;;;;;;;;;;;;;;5088123;28;19990;-60
2023/05/11 10:41:12;;;;;;;;;;;;;;;;;;5091073;28;19931;-60
2023/05/11 10:43:38;;;;;;;;;;;;;;;;;;5087742;28;19923;-60
2023/05/11 10:46:04;;;;;;;;;;;;;;;;;;5089473;28;19935;-60
2023/05/11 10:48:30;;;;;;;;;;;;;;;;;;5088223;28;19928;-60
2023/05/11 10:50:57;;;;;;;;;;;;;;;;;;5088368;28;19928;-60
2023/05/11 10:53:23;;;;;;;;;;;;;;;;;;5090238;28;20442;-60
2023/05/11 10:55:49;;;;;;;;;;;;;;;;;;5086794;28;19924;-60
2023/05/11 10:58:16;;;;;;;;;;;;;;;;;;5088186;28;19924;-60
2023/05/11 11:00:46;;;;;;;;;;;;;;;;;;5088884;28;19928;-60
2023/05/11 11:03:12;;;;;;;;;;;;;;;;;;5087683;28;20695;-60
2023/05/11 11:05:38;;;;;;;;;;;;;;;;;;5088033;28;20378;-60
2023/05/11 11:08:06;;;;;;;;;;;;;;;;;;5080337;28;19920;-59
2023/05/11 11:10:32;;;;;;;;;;;;;;;;;;5088915;28;20038;-60
2023/05/11 11:12:58;;;;;;;;;;;;;;;;;;5080139;28;19932;-59
2023/05/11 11:15:24;;;;;;;;;;;;;;;;;;5085381;28;19924;-60
2023/05/11 11:17:50;;;;;;;;;;;;;;;;;;5088595;28;20006;-58
2023/05/11 11:20:16;;;;;;;;;;;;;;;;;;5083168;28;20065;-58
2023/05/11 11:22:42;;;;;;;;;;;;;;;;;;5090714;28;19927;-60
2023/05/11 11:25:08;;;;;;;;;;;;;;;;;;5086551;28;19924;-60
2023/05/11 11:27:34;;;;;;;;;;;;;;;;;;5076098;28;19982;-61
2023/05/11 11:30:00;;;;;;;;;;;;;;;;;;5072559;28;19963;-58
2023/05/11 11:32:26;;;;;;;;;;;;;;;;;;5081185;28;19920;-59
2023/05/11 11:34:52;;;;;;;;;;;;;;;;;;5079167;28;20290;-58
2023/05/11 11:37:21;;;;;;;;;;;;;;;;;;5078667;28;20330;-59
2023/05/11 11:39:48;;;;;;;;;;;;;;;;;;5078999;28;19921;-59
2023/05/11 11:42:14;;;;;;;;;;;;;;;;;;5079381;28;19954;-59
2023/05/11 11:44:40;;;;;;;;;;;;;;;;;;5077928;28;20015;-59
2023/05/11 11:47:06;;;;;;;;;;;;;;;;;;5080674;28;20077;-60
2023/05/11 11:49:32;;;;;;;;;;;;;;;;;;5058973;28;19933;-60
2023/05/11 11:51:58;;;;;;;;;;;;;;;;;;5080270;28;19955;-59
2023/05/11 11:54:24;;;;;;;;;;;;;;;;;;5077154;28;19920;-59
2023/05/11 11:56:50;;;;;;;;;;;;;;;;;;5078674;28;19999;-58
2023/05/11 11:59:17;;;;;;;;;;;;;;;;;;5078667;28;19928;-59
2023/05/11 12:01:43;;;;;;;;;;;;;;;;;;5073109;28;20015;-59
2023/05/11 12:04:09;;;;;;;;;;;;;;;;;;5077666;28;20003;-58
2023/05/11 12:06:35;;;;;;;;;;;;;;;;;;5076381;28;19963;-61
2023/05/11 12:09:03;;;;;;;;;;;;;;;;;;5076372;28;20441;-62
2023/05/11 12:11:29;;;;;;;;;;;;;;;;;;5077214;28;19931;-60
2023/05/11 12:13:55;;;;;;;;;;;;;;;;;;5082602;28;20603;-60
2023/05/11 12:16:21;;;;;;;;;;;;;;;;;;5088943;28;19999;-61
2023/05/11 12:18:47;;;;;;;;;;;;;;;;;;5075058;28;19924;-61
2023/05/11 12:21:13;;;;;;;;;;;;;;;;;;5075966;28;19928;-62
2023/05/11 12:23:39;;;;;;;;;;;;;;;;;;5080513;28;19950;-60
2023/05/11 12:26:05;;;;;;;;;;;;;;;;;;5078428;28;20022;-60
2023/05/11 12:28:31;;;;;;;;;;;;;;;;;;5080203;28;19943;-59
2023/05/11 12:30:57;;;;;;;;;;;;;;;;;;5082030;28;19924;-59
2023/05/11 12:33:23;;;;;;;;;;;;;;;;;;5081487;28;19947;-60
2023/05/11 12:35:48;;;;;;;;;;;;;;;;;;5082535;28;19924;-59
2023/05/11 12:38:14;;;;;;;;;;;;;;;;;;5075213;28;19920;-60
2023/05/11 12:40:40;;;;;;;;;;;;;;;;;;5071358;28;19925;-61
2023/05/11 12:43:06;;;;;;;;;;;;;;;;;;5072648;28;19928;-61
2023/05/11 12:45:32;;;;;;;;;;;;;;;;;;5075982;28;20372;-59
2023/05/11 12:47:58;;;;;;;;;;;;;;;;;;5077262;28;19920;-61
2023/05/11 12:50:24;;;;;;;;;;;;;;;;;;5075655;28;19950;-61
2023/05/11 12:52:50;;;;;;;;;;;;;;;;;;5074471;28;20061;-61
2023/05/11 12:55:16;;;;;;;;;;;;;;;;;;5069195;28;19955;-60
2023/05/11 12:57:42;;;;;;;;;;;;;;;;;;5072851;28;20382;-60
2023/05/11 13:00:09;;;;;;;;;;;;;;;;;;5067019;28;19931;-59
2023/05/11 13:02:35;;;;;;;;;;;;;;;;;;5066167;28;20389;-61
2023/05/11 13:05:01;;;;;;;;;;;;;;;;;;5064727;28;20360;-61
2023/05/11 13:07:27;;;;;;;;;;;;;;;;;;5075230;28;19929;-58
2023/05/11 13:09:53;;;;;;;;;;;;;;;;;;5068087;28;19929;-58
2023/05/11 13:12:20;;;;;;;;;;;;;;;;;;5081366;28;19943;-61
2023/05/11 13:14:46;;;;;;;;;;;;;;;;;;5066679;28;20298;-60
2023/05/11 13:17:12;;;;;;;;;;;;;;;;;;5088360;28;19920;-61
2023/05/11 13:19:38;;;;;;;;;;;;;;;;;;5080890;28;19936;-59
2023/05/11 13:22:04;;;;;;;;;;;;;;;;;;5069803;28;19959;-59
2023/05/11 13:24:30;;;;;;;;;;;;;;;;;;5082366;28;19986;-58
2023/05/11 13:26:56;;;;;;;;;;;;;;;;;;5079205;28;19924;-57
2023/05/11 13:29:22;;;;;;;;;;;;;;;;;;5059864;28;19925;-60
2023/05/11 13:31:48;;;;;;;;;;;;;;;;;;5088942;28;20083;-59
2023/05/11 13:34:14;;;;;;;;;;;;;;;;;;5093508;28;19920;-60
2023/05/11 13:36:40;;;;;;;;;;;;;;;;;;5093475;28;19928;-59
2023/05/11 13:39:06;;;;;;;;;;;;;;;;;;5092889;28;19920;-60
2023/05/11 13:41:32;;;;;;;;;;;;;;;;;;5092678;28;19955;-59
2023/05/11 13:43:58;;;;;;;;;;;;;;;;;;5092897;28;19935;-60
2023/05/11 13:46:24;;;;;;;;;;;;;;;;;;5092403;28;19920;-60
2023/05/11 13:48:50;;;;;;;;;;;;;;;;;;5092373;28;20096;-60
2023/05/11 13:51:16;;;;;;;;;;;;;;;;;;5092540;28;20418;-60
2023/05/11 13:53:43;;;;;;;;;;;;;;;;;;5092636;28;19930;-59
2023/05/11 13:56:09;;;;;;;;;;;;;;;;;;5093008;28;19924;-57
2023/05/11 13:58:34;;;;;;;;;;;;;;;;;;5092141;28;19931;-61
2023/05/11 14:01:00;;;;;;;;;;;;;;;;;;5092704;28;19946;-60
2023/05/11 14:03:29;;;;;;;;;;;;;;;;;;5091852;28;19920;-59
2023/05/11 14:05:55;;;;;;;;;;;;;;;;;;5092924;28;20035;-60
2023/05/11 14:08:21;;;;;;;;;;;;;;;;;;5092434;28;20437;-59
2023/05/11 14:10:47;;;;;;;;;;;;;;;;;;5073508;28;20148;-59
2023/05/11 14:13:13;;;;;;;;;;;;;;;;;;5092664;28;20008;-59
2023/05/11 14:15:39;;;;;;;;;;;;;;;;;;5092747;28;20258;-60
2023/05/11 14:18:06;;;;;;;;;;;;;;;;;;5091950;28;19990;-60
2023/05/11 14:20:32;;;;;;;;;;;;;;;;;;5091785;28;20015;-60
2023/05/11 14:22:58;;;;;;;;;;;;;;;;;;5092294;28;20412;-59
2023/05/11 14:25:24;;;;;;;;;;;;;;;;;;5091929;28;19924;-60
2023/05/11 14:27:53;;;;;;;;;;;;;;;;;;5092227;28;19927;-58
2023/05/11 14:30:19;;;;;;;;;;;;;;;;;;5092190;28;19924;-58
2023/05/11 14:32:45;;;;;;;;;;;;;;;;;;5091842;28;19950;-60
2023/05/11 14:35:11;;;;;;;;;;;;;;;;;;5092505;28;20747;-58
2023/05/11 14:37:38;;;;;;;;;;;;;;;;;;5091577;28;20006;-59
2023/05/11 14:40:04;;;;;;;;;;;;;;;;;;5091830;28;19920;-59
2023/05/11 14:42:30;;;;;;;;;;;;;;;;;;5092068;28;19920;-57
2023/05/11 14:44:56;;;;;;;;;;;;;;;;;;5092383;28;19924;-58
2023/05/11 14:47:22;;;;;;;;;;;;;;;;;;5091820;28;19954;-58
2023/05/11 14:49:48;;;;;;;;;;;;;;;;;;5091950;28;20354;-59
2023/05/11 14:52:14;;;;;;;;;;;;;;;;;;5092003;28;20006;-61
2023/05/11 14:54:41;;;;;;;;;;;;;;;;;;5091584;28;19946;-61
2023/05/11 14:57:07;;;;;;;;;;;;;;;;;;5090579;28;19934;-61
2023/05/11 14:59:33;;;;;;;;;;;;;;;;;;5092303;28;19920;-61
2023/05/11 15:01:59;;;;;;;;;;;;;;;;;;5091449;28;19994;-61
2023/05/11 15:04:25;;;;;;;;;;;;;;;;;;5092049;28;19946;-61
2023/05/11 15:06:51;;;;;;;;;;;;;;;;;;5073859;28;19967;-61
2023/05/11 15:09:19;;;;;;;;;;;;;;;;;;5091329;28;19982;-61
2023/05/11 15:11:45;;;;;;;;;;;;;;;;;;5091882;28;19963;-61
2023/05/11 15:14:11;;;;;;;;;;;;;;;;;;5073926;28;19966;-61
2023/05/11 15:16:37;;;;;;;;;;;;;;;;;;5091472;28;19924;-61
2023/05/11 15:19:03;;;;;;;;;;;;;;;;;;5091897;28;19985;-61
2023/05/11 15:21:30;;;;;;;;;;;;;;;;;;5091804;28;19927;-61
2023/05/11 15:23:56;;;;;;;;;;;;;;;;;;5090910;28;19924;-61
2023/05/11 15:26:22;;;;;;;;;;;;;;;;;;5079604;28;20353;-61
2023/05/11 15:28:48;;;;;;;;;;;;;;;;;;5087263;28;19936;-61
2023/05/11 15:31:14;;;;;;;;;;;;;;;;;;5091145;28;19920;-61
2023/05/11 15:33:40;;;;;;;;;;;;;;;;;;5073283;28;19959;-61
2023/05/11 15:36:06;;;;;;;;;;;;;;;;;;5091303;28;19927;-62
2023/05/11 15:38:32;;;;;;;;;;;;;;;;;;5090762;28;19920;-61
2023/05/11 15:40:58;;;;;;;;;;;;;;;;;;5091417;28;19973;-61
2023/05/11 15:43:24;;;;;;;;;;;;;;;;;;5091279;28;20076;-61
2023/05/11 15:45:50;;;;;;;;;;;;;;;;;;5072455;28;20357;-61
2023/05/11 15:48:16;;;;;;;;;;;;;;;;;;5091341;28;19965;-61
2023/05/11 15:50:42;;;;;;;;;;;;;;;;;;5090918;28;19965;-61
2023/05/11 15:53:07;;;;;;;;;;;;;;;;;;5090768;28;19924;-61
2023/05/11 15:55:33;;;;;;;;;;;;;;;;;;5091350;28;19924;-61
2023/05/11 15:57:59;;;;;;;;;;;;;;;;;;5072931;28;19924;-61
2023/05/11 16:00:25;;;;;;;;;;;;;;;;;;5090673;28;19924;-61
2023/05/11 16:02:51;;;;;;;;;;;;;;;;;;5091042;28;19920;-61
2023/05/11 16:05:17;;;;;;;;;;;;;;;;;;5091292;28;20558;-61
2023/05/11 16:07:43;;;;;;;;;;;;;;;;;;5072327;28;19920;-61
2023/05/11 16:10:09;;;;;;;;;;;;;;;;;;5090888;28;19997;-61
2023/05/11 16:12:35;;;;;;;;;;;;;;;;;;5090879;28;19926;-61
2023/05/11 16:15:01;;;;;;;;;;;;;;;;;;5090625;28;19924;-61
2023/05/11 16:17:27;;;;;;;;;;;;;;;;;;5091067;28;19928;-61
2023/05/11 16:19:53;;;;;;;;;;;;;;;;;;5056041;28;19981;-61
2023/05/11 16:22:19;;;;;;;;;;;;;;;;;;5090483;28;19923;-61
2023/05/11 16:24:45;;;;;;;;;;;;;;;;;;5090716;28;19924;-61
2023/05/11 16:27:11;;;;;;;;;;;;;;;;;;5074711;28;19966;-61
2023/05/11 16:29:37;;;;;;;;;;;;;;;;;;5090081;28;20011;-61
2023/05/11 16:32:03;;;;;;;;;;;;;;;;;;5090755;28;20444;-61
2023/05/11 16:34:29;;;;;;;;;;;;;;;;;;5090623;28;19947;-61
2023/05/11 16:36:55;;;;;;;;;;;;;;;;;;5090313;28;19975;-61